Time;durP1;ratioP1;P1;durP2;ratioP2;P2;SDS_P1;SDS_P2;PMS_P1;PMS_P2;Temp;Humidity;BMP_temperature;BMP_pressure;BME280_temperature;BME280_humidity;BME280_pressure;Samples;Min_cycle;Max_cycle;Signal;HPM_P1;HPM_P2
2022/03/30 00:01:23;;;;;;;35.10;22.38;;;;;;;12.44;48.48;99783.06;5040028;28;20037;-73
2022/03/30 00:03:49;;;;;;;27.92;21.20;;;;;;;12.50;48.62;99774.16;5040418;28;20679;-73
2022/03/30 00:06:15;;;;;;;32.17;24.35;;;;;;;12.54;48.11;99773.22;5039796;28;20029;-73
2022/03/30 00:08:42;;;;;;;31.15;21.67;;;;;;;12.29;48.72;99788.56;5038422;28;20060;-72
2022/03/30 00:11:08;;;;;;;29.83;23.20;;;;;;;12.45;48.21;99785.69;5039281;28;20435;-72
2022/03/30 00:13:35;;;;;;;30.88;22.38;;;;;;;12.40;48.68;99789.25;5040747;28;20171;-72
2022/03/30 00:16:02;;;;;;;42.47;26.40;;;;;;;12.28;49.14;99786.84;5040606;28;20037;-72
2022/03/30 00:18:27;;;;;;;30.88;24.40;;;;;;;12.09;49.98;99786.28;5039360;28;20071;-74
2022/03/30 00:20:53;;;;;;;38.45;24.65;;;;;;;11.97;49.92;99784.72;5021374;28;20560;-74
2022/03/30 00:23:18;;;;;;;34.83;25.27;;;;;;;12.11;49.97;99780.09;5039029;28;20041;-74
2022/03/30 00:25:44;;;;;;;31.85;25.77;;;;;;;11.94;49.59;99777.75;5040862;28;20045;-73
2022/03/30 00:28:09;;;;;;;31.77;23.77;;;;;;;12.03;49.94;99781.97;5039707;28;20053;-73
2022/03/30 00:30:35;;;;;;;30.02;24.17;;;;;;;11.87;50.08;99780.44;5038347;28;20117;-73
2022/03/30 00:33:01;;;;;;;32.88;23.75;;;;;;;11.83;50.04;99783.13;5020662;28;20613;-73
2022/03/30 00:35:26;;;;;;;31.08;23.77;;;;;;;11.74;50.76;99777.16;5031592;28;20048;-73
2022/03/30 00:37:52;;;;;;;31.25;24.10;;;;;;;11.74;50.68;99761.38;5040831;28;20041;-73
2022/03/30 00:40:18;;;;;;;32.25;22.83;;;;;;;11.78;51.07;99763.94;5042135;28;20040;-73
2022/03/30 00:42:43;;;;;;;38.38;23.55;;;;;;;11.68;50.98;99767.59;5023788;28;20033;-73
2022/03/30 00:45:13;;;;;;;39.70;24.35;;;;;;;11.55;51.10;99766.06;5025006;28;20173;-73
2022/03/30 00:47:41;;;;;;;31.98;24.40;;;;;;;11.62;50.47;99760.69;5043000;28;20053;-73
2022/03/30 00:50:09;;;;;;;34.58;23.08;;;;;;;11.39;51.06;99753.13;5041750;28;20079;-72
2022/03/30 00:52:35;;;;;;;36.35;22.17;;;;;;;11.66;50.80;99761.50;5039172;28;20072;-73
2022/03/30 00:55:01;;;;;;;36.30;24.83;;;;;;;11.69;50.27;99748.31;5024313;28;20021;-73
2022/03/30 00:57:29;;;;;;;35.35;22.33;;;;;;;11.64;50.54;99758.03;5044478;28;20032;-73
2022/03/30 00:59:55;;;;;;;32.13;20.67;;;;;;;11.43;50.93;99750.47;5042829;28;20053;-73
2022/03/30 01:02:23;;;;;;;36.72;21.83;;;;;;;11.52;50.71;99748.56;5043669;28;20153;-73
2022/03/30 01:04:49;;;;;;;34.63;22.15;;;;;;;11.39;51.04;99753.13;5045279;28;20144;-73
2022/03/30 01:07:15;;;;;;;28.08;22.25;;;;;;;11.51;51.31;99769.59;5042504;28;20036;-73
2022/03/30 01:09:41;;;;;;;32.10;21.65;;;;;;;11.54;50.97;99754.69;5041294;28;20036;-73
2022/03/30 01:12:09;;;;;;;30.20;23.77;;;;;;;11.47;51.09;99739.00;5042859;28;20114;-73
2022/03/30 01:14:35;;;;;;;25.23;20.95;;;;;;;11.35;51.83;99747.94;5034945;28;20124;-73
2022/03/30 01:17:01;;;;;;;35.88;24.05;;;;;;;11.32;52.20;99751.47;5037144;28;20033;-73
2022/03/30 01:19:31;;;;;;;25.85;20.65;;;;;;;11.01;52.95;99735.25;5042964;28;20554;-73
2022/03/30 01:21:59;;;;;;;35.97;24.02;;;;;;;11.33;52.38;99745.34;5041992;28;20611;-73
2022/03/30 01:24:25;;;;;;;32.35;22.20;;;;;;;11.24;52.32;99727.09;5041566;28;20036;-73
2022/03/30 01:26:50;;;;;;;32.67;22.58;;;;;;;11.14;52.47;99738.59;5042708;28;20045;-73
2022/03/30 01:34:45;;;;;;;35.08;23.27;;;;;;;11.16;52.95;99739.44;5037117;28;20090;-73
2022/03/30 01:37:14;;;;;;;33.25;21.88;;;;;;;11.10;52.30;99735.16;5039215;28;20063;-73
2022/03/30 01:39:41;;;;;;;38.88;21.33;;;;;;;11.06;52.95;99733.44;5039389;28;20029;-73
2022/03/30 01:42:07;;;;;;;32.10;22.95;;;;;;;11.05;53.27;99738.69;5037465;28;20102;-73
2022/03/30 01:44:33;;;;;;;29.23;22.80;;;;;;;11.08;53.02;99734.28;5038906;28;20045;-73
2022/03/30 01:47:00;;;;;;;37.58;23.33;;;;;;;10.97;53.28;99738.81;5030074;28;20064;-73
2022/03/30 01:49:26;;;;;;;30.30;21.23;;;;;;;10.80;53.54;99727.66;5019284;28;20033;-73
2022/03/30 01:51:53;;;;;;;36.45;20.30;;;;;;;10.84;53.36;99740.72;5018433;28;20037;-75
2022/03/30 01:54:22;;;;;;;36.90;23.00;;;;;;;10.92;53.22;99730.13;5019680;28;20457;-73
2022/03/30 01:56:49;;;;;;;38.28;24.67;;;;;;;10.82;53.39;99745.13;5017999;28;20056;-73
2022/03/30 01:59:15;;;;;;;35.45;25.38;;;;;;;10.65;53.37;99732.22;5018450;28;20033;-73
2022/03/30 02:01:41;;;;;;;29.77;22.95;;;;;;;10.75;53.13;99753.97;5018739;28;20084;-73
2022/03/30 02:04:07;;;;;;;34.10;22.23;;;;;;;10.70;53.70;99747.88;5021050;28;20105;-73
2022/03/30 02:06:34;;;;;;;32.95;21.92;;;;;;;10.62;53.26;99742.72;5038008;28;20460;-73
2022/03/30 02:09:00;;;;;;;29.98;24.52;;;;;;;10.70;54.00;99745.25;5038334;28;20048;-73
2022/03/30 02:11:26;;;;;;;31.23;22.23;;;;;;;10.56;54.44;99733.16;5011604;28;20042;-73
2022/03/30 02:13:52;;;;;;;41.90;23.42;;;;;;;10.49;54.37;99747.25;5027775;28;20085;-72
2022/03/30 02:16:18;;;;;;;29.70;22.70;;;;;;;10.48;54.50;99744.63;5033940;28;20392;-72
2022/03/30 02:18:44;;;;;;;37.00;22.17;;;;;;;10.43;54.58;99743.81;5023431;28;20107;-72
2022/03/30 02:21:10;;;;;;;33.60;23.60;;;;;;;10.39;54.75;99742.94;5000848;28;20469;-72
2022/03/30 02:23:36;;;;;;;46.88;25.75;;;;;;;10.32;54.99;99733.41;5031948;28;20564;-72
2022/03/30 02:26:02;;;;;;;39.97;24.88;;;;;;;10.20;55.27;99738.75;5012350;28;20111;-72
2022/03/30 02:28:28;;;;;;;36.72;23.92;;;;;;;10.30;54.85;99743.94;5021779;28;20525;-71
2022/03/30 02:30:53;;;;;;;30.15;22.67;;;;;;;10.38;54.63;99759.59;5021859;28;20059;-71
2022/03/30 02:33:19;;;;;;;33.40;24.63;;;;;;;10.44;54.96;99759.53;5022913;28;20218;-72
2022/03/30 02:35:44;;;;;;;36.33;24.35;;;;;;;10.24;55.05;99759.69;5031538;28;20438;-73
2022/03/30 02:38:10;;;;;;;36.40;23.35;;;;;;;10.31;54.96;99757.91;5010828;28;20045;-72
2022/03/30 02:40:36;;;;;;;32.30;23.73;;;;;;;10.27;55.00;99759.63;5025700;28;20068;-72
2022/03/30 02:43:01;;;;;;;40.25;23.95;;;;;;;10.28;55.13;99748.31;5037570;28;21060;-73
2022/03/30 02:45:28;;;;;;;31.70;23.40;;;;;;;10.20;55.08;99750.09;5023522;28;20030;-72
2022/03/30 02:50:38;;;;;;;31.70;24.00;;;;;;;10.25;54.38;99758.78;5036078;28;20483;-72
2022/03/30 02:53:03;;;;;;;35.97;25.23;;;;;;;10.29;54.30;99767.53;5037291;28;20041;-72
2022/03/30 02:55:28;;;;;;;35.00;24.73;;;;;;;10.07;54.65;99756.34;5031983;28;20610;-71
2022/03/30 02:57:54;;;;;;;35.67;24.55;;;;;;;10.10;54.28;99766.81;5022553;28;20033;-72
2022/03/30 03:00:20;;;;;;;32.45;25.25;;;;;;;9.93;54.54;99756.47;5038547;28;20028;-72
2022/03/30 03:02:46;;;;;;;31.42;22.92;;;;;;;10.12;54.01;99751.94;5020967;28;20040;-72
2022/03/30 03:05:11;;;;;;;37.20;25.27;;;;;;;9.94;54.75;99760.81;5018452;28;20404;-72
2022/03/30 03:07:37;;;;;;;37.15;23.60;;;;;;;9.97;54.34;99766.00;5023800;28;20483;-73
2022/03/30 03:10:03;;;;;;;31.17;25.38;;;;;;;10.05;54.00;99771.22;5036838;28;20021;-73
2022/03/30 03:12:28;;;;;;;31.77;23.58;;;;;;;9.88;54.46;99764.34;5037328;28;20040;-73
2022/03/30 03:14:54;;;;;;;36.90;27.35;;;;;;;10.05;53.90;99758.13;5017165;28;20151;-73
2022/03/30 03:17:20;;;;;;;33.83;25.48;;;;;;;10.17;54.28;99775.47;5036845;28;20052;-73
2022/03/30 03:19:46;;;;;;;44.00;26.05;;;;;;;10.05;54.21;99766.84;5018940;28;20045;-73
2022/03/30 03:22:11;;;;;;;32.53;25.55;;;;;;;9.89;54.57;99762.59;5033479;28;20092;-73
2022/03/30 03:24:37;;;;;;;30.35;26.83;;;;;;;9.75;54.63;99773.19;5020203;28;20828;-73
2022/03/30 03:27:02;;;;;;;36.30;26.13;;;;;;;9.84;54.38;99767.88;5036904;28;20111;-73
2022/03/30 03:29:28;;;;;;;36.60;24.85;;;;;;;9.80;55.39;99770.53;5024155;28;20050;-73
2022/03/30 03:31:53;;;;;;;36.00;25.52;;;;;;;9.82;54.75;99776.63;5029109;28;20128;-74
2022/03/30 03:34:19;;;;;;;36.65;27.35;;;;;;;9.52;54.75;99768.94;5043179;28;20540;-74
2022/03/30 03:36:44;;;;;;;37.13;26.63;;;;;;;9.49;54.36;99768.97;5055263;28;20029;-72
2022/03/30 03:39:10;;;;;;;35.85;26.92;;;;;;;9.57;54.00;99763.69;5054956;28;20059;-73
2022/03/30 03:41:35;;;;;;;41.33;28.88;;;;;;;9.56;53.93;99776.81;5059034;28;20473;-74
2022/03/30 03:44:01;;;;;;;35.85;27.23;;;;;;;9.77;53.88;99776.66;5046477;28;20045;-73
2022/03/30 03:46:26;;;;;;;48.88;29.90;;;;;;;9.70;53.56;99773.22;5041125;28;20059;-74
2022/03/30 03:48:52;;;;;;;43.60;29.33;;;;;;;9.48;54.31;99776.84;5056618;28;20081;-73
2022/03/30 03:51:18;;;;;;;41.92;30.10;;;;;;;9.63;54.03;99789.84;5055927;28;20055;-76
2022/03/30 03:53:43;;;;;;;44.22;28.92;;;;;;;9.62;53.94;99776.75;5055734;28;20037;-75
2022/03/30 03:56:09;;;;;;;46.00;28.80;;;;;;;9.62;54.16;99787.22;5056725;28;20341;-74
2022/03/30 03:58:34;;;;;;;43.75;30.63;;;;;;;9.47;54.54;99780.34;5056928;28;20476;-73
2022/03/30 04:01:00;;;;;;;44.50;28.70;;;;;;;9.50;54.25;99780.31;5056468;28;20032;-72
2022/03/30 04:03:25;;;;;;;38.53;31.60;;;;;;;9.50;54.45;99773.34;5056634;28;20511;-73
2022/03/30 04:05:51;;;;;;;48.65;32.03;;;;;;;9.48;54.37;99769.88;5039215;28;20607;-73
2022/03/30 04:08:16;;;;;;;56.92;32.55;;;;;;;9.54;53.95;99783.81;5059564;28;20052;-73
2022/03/30 04:10:41;;;;;;;37.38;29.13;;;;;;;9.61;53.58;99775.03;5040797;28;20052;-73
2022/03/30 04:13:07;;;;;;;41.17;31.90;;;;;;;9.65;53.21;99777.63;5059631;28;20031;-73
2022/03/30 04:15:37;;;;;;;47.72;29.50;;;;;;;9.63;53.39;99787.22;5040907;28;20059;-73
2022/03/30 04:18:04;;;;;;;34.95;29.42;;;;;;;9.49;53.85;99795.16;5056333;28;20056;-74
2022/03/30 04:20:30;;;;;;;45.00;28.92;;;;;;;9.53;54.36;99793.41;5059998;28;20145;-74
2022/03/30 04:22:56;;;;;;;45.83;30.25;;;;;;;9.46;54.55;99796.94;5050317;28;20045;-73
2022/03/30 04:25:23;;;;;;;39.58;29.50;;;;;;;9.43;54.16;99787.34;5039298;28;20369;-73
2022/03/30 04:27:51;;;;;;;39.53;28.80;;;;;;;9.36;54.62;99792.63;5021528;28;20071;-74
2022/03/30 04:30:18;;;;;;;46.40;30.15;;;;;;;9.29;55.01;99789.16;5059898;28;20170;-73
2022/03/30 04:32:44;;;;;;;45.00;27.42;;;;;;;9.37;54.88;99787.38;5059458;28;20040;-73
2022/03/30 04:35:11;;;;;;;59.67;30.08;;;;;;;9.38;55.20;99793.50;5043904;28;20041;-73
2022/03/30 04:37:37;;;;;;;55.28;28.58;;;;;;;9.30;55.40;99796.16;5029188;28;20045;-73
2022/03/30 04:40:03;;;;;;;50.17;30.00;;;;;;;9.19;55.08;99785.72;5058538;28;20056;-73
2022/03/30 04:42:28;;;;;;;52.78;30.40;;;;;;;9.24;54.93;99794.41;5057089;28;20059;-73
2022/03/30 04:44:54;;;;;;;51.10;30.52;;;;;;;9.30;55.19;99797.00;5056442;28;20051;-73
2022/03/30 04:47:19;;;;;;;45.28;30.40;;;;;;;9.28;55.14;99800.53;5059368;28;20476;-72
2022/03/30 04:49:45;;;;;;;38.40;27.52;;;;;;;9.16;55.24;99796.22;5041960;28;20040;-73
2022/03/30 04:52:10;;;;;;;50.08;33.15;;;;;;;8.98;55.56;99799.75;5059485;28;20040;-73
2022/03/30 04:54:36;;;;;;;42.60;30.60;;;;;;;8.90;55.33;99809.41;5059511;28;20030;-73
2022/03/30 04:57:01;;;;;;;42.22;31.48;;;;;;;9.23;54.35;99813.63;5060351;28;20080;-73
2022/03/30 04:59:27;;;;;;;42.65;30.83;;;;;;;9.38;54.38;99814.44;5062618;28;20119;-73
2022/03/30 05:01:53;;;;;;;50.13;31.00;;;;;;;9.37;54.51;99800.47;5067577;28;20040;-73
2022/03/30 05:04:18;;;;;;;54.65;33.00;;;;;;;9.60;53.97;99816.06;5058632;28;20086;-74
2022/03/30 05:06:44;;;;;;;42.35;33.08;;;;;;;9.60;53.49;99812.56;5061380;28;20085;-72
2022/03/30 05:09:09;;;;;;;42.20;31.00;;;;;;;9.63;53.58;99816.03;5061384;28;20040;-74
2022/03/30 05:11:35;;;;;;;52.20;30.77;;;;;;;9.67;53.37;99811.66;5060352;28;20417;-74
2022/03/30 05:14:00;;;;;;;40.25;28.40;;;;;;;9.97;53.35;99818.44;5050740;28;20439;-73
2022/03/30 05:16:26;;;;;;;43.53;28.73;;;;;;;10.12;53.42;99823.56;5046629;28;20052;-73
2022/03/30 05:18:51;;;;;;;44.92;30.83;;;;;;;10.12;53.40;99823.56;5061021;28;20032;-72
2022/03/30 05:21:17;;;;;;;43.90;31.95;;;;;;;10.28;52.86;99832.22;5061433;28;20121;-73
2022/03/30 05:23:42;;;;;;;34.80;27.77;;;;;;;10.36;52.21;99824.28;5042515;28;20061;-74
2022/03/30 05:26:08;;;;;;;46.22;32.10;;;;;;;10.29;52.25;99804.25;5052455;28;20060;-72
2022/03/30 05:28:38;;;;;;;61.55;31.20;;;;;;;10.84;51.28;99826.44;5044542;28;20480;-73
2022/03/30 05:31:04;;;;;;;50.33;30.75;;;;;;;11.34;49.69;99839.00;5042536;28;20086;-73
2022/03/30 05:33:29;;;;;;;41.40;28.70;;;;;;;11.84;48.66;99837.44;5062826;28;20029;-73
2022/03/30 05:35:55;;;;;;;41.70;26.48;;;;;;;12.14;47.36;99818.63;5060897;28;20546;-73
2022/03/30 05:38:34;;;;;;;35.05;25.42;;;;;;;12.59;46.60;99835.41;5055038;28;20040;-73
2022/03/30 05:40:59;;;;;;;41.72;28.08;;;;;;;12.70;46.24;99827.31;5053915;28;20086;-73
2022/03/30 05:43:25;;;;;;;45.42;28.98;;;;;;;13.14;45.17;99825.63;5039345;28;20045;-73
2022/03/30 05:45:51;;;;;;;45.22;31.13;;;;;;;12.97;44.97;99831.22;5038204;28;20524;-73
2022/03/30 05:48:17;;;;;;;36.28;27.95;;;;;;;13.39;45.21;99840.94;5062850;28;20012;-72
2022/03/30 05:50:43;;;;;;;46.83;29.38;;;;;;;13.32;44.97;99834.94;5043624;28;20048;-73
2022/03/30 05:53:08;;;;;;;38.85;29.35;;;;;;;13.27;44.61;99835.06;5050892;28;20054;-73
2022/03/30 05:55:34;;;;;;;36.72;27.80;;;;;;;13.85;44.32;99840.81;5060106;28;20032;-72
2022/03/30 05:58:00;;;;;;;46.72;28.88;;;;;;;14.09;42.83;99841.16;5061014;28;20032;-74
2022/03/30 06:00:28;;;;;;;32.88;28.33;;;;;;;14.24;42.89;99842.56;5060077;28;20638;-73
2022/03/30 06:02:55;;;;;;;44.95;28.48;;;;;;;14.11;43.08;99836.72;5056534;28;20052;-74
2022/03/30 06:05:21;;;;;;;38.85;29.35;;;;;;;14.43;42.11;99835.94;5058898;28;20043;-74
2022/03/30 06:07:46;;;;;;;45.78;28.02;;;;;;;14.52;42.13;99846.25;5051379;28;20095;-73
2022/03/30 06:10:12;;;;;;;37.55;27.38;;;;;;;14.61;41.94;99829.34;5038362;28;20465;-74
2022/03/30 06:12:38;;;;;;;47.83;32.78;;;;;;;14.60;41.41;99837.31;5038657;28;20463;-74
2022/03/30 06:15:04;;;;;;;42.25;30.00;;;;;;;14.32;42.61;99836.19;5020825;28;20139;-73
2022/03/30 06:17:35;;;;;;;35.17;27.05;;;;;;;14.02;42.89;99831.66;5056265;28;20047;-75
2022/03/30 06:20:03;;;;;;;59.83;31.20;;;;;;;13.75;43.63;99848.97;5057717;28;20036;-76
2022/03/30 06:22:30;;;;;;;37.13;28.50;;;;;;;14.01;42.61;99843.13;5059302;28;20051;-72
2022/03/30 06:24:56;;;;;;;40.08;28.38;;;;;;;13.08;44.21;99852.06;5060822;28;20032;-76
2022/03/30 06:27:22;;;;;;;47.65;28.25;;;;;;;12.92;44.96;99829.56;5058182;28;20062;-75
2022/03/30 06:29:47;;;;;;;40.85;28.15;;;;;;;13.38;44.23;99842.72;5058162;28;20064;-77
2022/03/30 06:32:13;;;;;;;38.85;26.77;;;;;;;13.01;45.44;99832.88;5064118;28;20435;-76
2022/03/30 06:34:40;;;;;;;40.92;28.30;;;;;;;13.00;45.65;99831.16;5044617;28;20033;-74
2022/03/30 06:37:06;;;;;;;42.03;28.73;;;;;;;12.91;45.65;99841.00;5031239;28;20092;-76
2022/03/30 06:39:36;;;;;;;45.30;29.02;;;;;;;13.12;45.35;99845.84;5022682;28;20037;-79
2022/03/30 06:42:03;;;;;;;41.22;30.23;;;;;;;12.75;46.01;99840.41;5030453;28;20526;-78
2022/03/30 06:44:29;;;;;;;41.65;28.35;;;;;;;13.07;45.66;99847.72;5017713;28;20037;-78
2022/03/30 06:46:54;;;;;;;45.97;30.10;;;;;;;13.10;46.33;99842.38;5009445;28;20489;-77
2022/03/30 06:49:20;;;;;;;41.67;29.42;;;;;;;13.05;45.51;99842.47;5007796;28;20045;-78
2022/03/30 06:51:45;;;;;;;55.53;32.40;;;;;;;13.21;45.42;99832.50;5001361;28;20462;-78
2022/03/30 06:54:11;;;;;;;54.13;31.10;;;;;;;13.28;45.40;99817.47;4988203;28;20038;-77
2022/03/30 06:56:36;;;;;;;44.97;28.38;;;;;;;13.56;45.25;99836.19;4983899;28;20044;-76
2022/03/30 06:59:02;;;;;;;45.63;28.38;;;;;;;13.77;44.47;99834.00;4987691;28;20099;-77
2022/03/30 07:01:38;;;;;;;103.93;68.95;;;;;;;14.24;44.89;99837.28;5007050;28;20045;-74
2022/03/30 07:04:03;;;;;;;68.03;41.05;;;;;;;14.70;43.43;99839.69;5018809;28;20089;-73
2022/03/30 07:06:29;;;;;;;1125.38;802.95;;;;;;;17.22;43.48;99830.97;5003227;28;20083;-74
2022/03/30 07:11:39;;;;;;;701.55;571.85;;;;;;;17.50;41.73;99836.09;5009451;28;20342;-70
2022/03/30 07:14:04;;;;;;;425.15;331.02;;;;;;;17.49;41.04;99839.69;5005915;28;20038;-72
2022/03/30 07:16:30;;;;;;;55.38;33.80;;;;;;;15.68;40.74;99843.94;5009410;28;20400;-72
2022/03/30 07:18:56;;;;;;;423.80;332.77;;;;;;;16.97;40.37;99825.69;5002769;28;20369;-72
2022/03/30 07:21:22;;;;;;;72.70;51.70;;;;;;;16.45;39.30;99823.88;5014287;28;20033;-72
2022/03/30 07:23:47;;;;;;;380.42;295.35;;;;;;;17.40;40.11;99816.16;5018330;28;20045;-72
2022/03/30 07:26:13;;;;;;;191.63;138.75;;;;;;;15.85;41.71;99827.63;5010626;28;20038;-72
2022/03/30 07:28:38;;;;;;;98.57;66.95;;;;;;;16.00;40.11;99821.84;5009078;28;20076;-72
2022/03/30 07:31:04;;;;;;;334.27;257.75;;;;;;;16.29;43.33;99822.66;5001900;28;20101;-73
2022/03/30 07:33:32;;;;;;;116.57;79.93;;;;;;;16.99;40.05;99826.50;5001434;28;20033;-71
2022/03/30 07:35:58;;;;;;;62.83;49.00;;;;;;;16.07;39.20;99822.50;5054135;28;20127;-71
2022/03/30 07:38:33;;;;;;;227.90;168.20;;;;;;;16.33;39.56;99834.03;5064676;28;20560;-71
2022/03/30 07:41:00;;;;;;;106.05;77.43;;;;;;;16.12;39.72;99830.31;5067109;28;20492;-71
2022/03/30 07:43:26;;;;;;;524.83;450.50;;;;;;;17.79;37.88;99834.97;5060093;28;20041;-71
2022/03/30 07:45:53;;;;;;;234.52;178.55;;;;;;;16.45;39.98;99833.63;5040879;28;20424;-70
2022/03/30 07:48:18;;;;;;;357.60;271.88;;;;;;;18.68;38.15;99828.75;5042480;28;20029;-72
2022/03/30 07:50:44;;;;;;;277.63;221.23;;;;;;;19.10;36.98;99829.59;5041610;28;20055;-71
2022/03/30 07:53:10;;;;;;;109.60;81.43;;;;;;;17.24;37.80;99837.94;5051158;28;20132;-71
2022/03/30 07:55:38;;;;;;;47.88;28.05;;;;;;;16.12;40.16;99838.25;5048700;28;20481;-71
2022/03/30 07:58:04;;;;;;;51.10;35.03;;;;;;;17.13;39.38;99833.94;5053080;28;20541;-74
2022/03/30 08:00:35;;;;;;;40.53;30.30;;;;;;;17.61;38.11;99841.03;5044233;28;20021;-75
2022/03/30 08:03:01;;;;;;;62.80;41.03;;;;;;;16.81;39.57;99844.78;5042453;28;20029;-73
2022/03/30 08:05:26;;;;;;;95.78;67.30;;;;;;;17.89;38.31;99847.00;5046918;28;20124;-75
2022/03/30 08:07:52;;;;;;;57.30;42.78;;;;;;;18.31;37.44;99853.34;5041224;28;20060;-75
2022/03/30 08:10:18;;;;;;;35.17;27.83;;;;;;;18.31;37.29;99834.75;5041945;28;20044;-75
2022/03/30 08:12:44;;;;;;;55.22;48.08;;;;;;;18.35;38.26;99842.53;5038269;28;20028;-74
2022/03/30 08:15:12;;;;;;;90.93;63.50;;;;;;;19.07;37.70;99843.03;5043247;28;20056;-73
2022/03/30 08:17:37;;;;;;;69.30;48.08;;;;;;;18.49;38.52;99836.59;5042946;28;20415;-74
2022/03/30 08:20:04;;;;;;;62.03;45.47;;;;;;;18.78;37.98;99845.19;5042335;28;20037;-75
2022/03/30 08:22:30;;;;;;;42.25;25.77;;;;;;;18.52;36.90;99831.19;5042479;28;20037;-73
2022/03/30 08:25:01;;;;;;;50.28;32.50;;;;;;;17.69;38.57;99830.97;5042473;28;20029;-74
2022/03/30 08:27:30;;;;;;;31.25;23.17;;;;;;;17.51;39.01;99829.88;5044865;28;20036;-71
2022/03/30 08:29:56;;;;;;;34.88;26.08;;;;;;;17.65;38.75;99824.94;5043292;28;20384;-71
2022/03/30 08:32:23;;;;;;;49.53;37.85;;;;;;;18.61;38.80;99821.94;5037584;28;20041;-71
2022/03/30 08:34:50;;;;;;;36.47;26.10;;;;;;;18.66;37.93;99829.72;5046158;28;20041;-74
2022/03/30 08:37:16;;;;;;;37.58;26.10;;;;;;;18.12;38.50;99823.97;5040812;28;20457;-73
2022/03/30 08:39:41;;;;;;;35.22;22.88;;;;;;;18.02;38.05;99822.63;5043253;28;20055;-72
2022/03/30 08:42:10;;;;;;;34.72;22.33;;;;;;;18.13;38.06;99821.25;5042744;28;20488;-73
2022/03/30 08:44:37;;;;;;;39.88;26.77;;;;;;;18.40;37.70;99817.53;5043399;28;20049;-74
2022/03/30 08:47:04;;;;;;;34.40;22.20;;;;;;;18.20;38.23;99813.91;5039378;28;20036;-70
2022/03/30 08:49:35;;;;;;;42.20;24.75;;;;;;;18.53;37.71;99816.09;5041775;28;20037;-71
2022/03/30 08:52:06;;;;;;;34.80;24.77;;;;;;;18.69;37.66;99803.88;5040586;28;20025;-72
2022/03/30 08:54:33;;;;;;;32.70;20.40;;;;;;;19.29;35.70;99798.59;5041371;28;20048;-73
2022/03/30 08:56:59;;;;;;;31.38;21.17;;;;;;;18.67;36.56;99792.44;5042854;28;20131;-74
2022/03/30 08:59:38;;;;;;;26.20;20.10;;;;;;;18.96;37.31;99807.16;5044364;28;20134;-74
2022/03/30 09:02:04;;;;;;;30.00;19.75;;;;;;;19.53;36.08;99801.06;5041589;28;20075;-74
2022/03/30 09:04:29;;;;;;;30.83;24.85;;;;;;;20.68;35.81;99790.13;5041199;28;20053;-75
2022/03/30 09:06:58;;;;;;;37.95;24.45;;;;;;;20.42;36.31;99797.63;5042820;28;20040;-74
2022/03/30 09:09:52;;;;;;;29.00;23.10;;;;;;;20.47;35.95;99780.53;5041248;28;20025;-72
2022/03/30 09:12:25;;;;;;;40.30;24.10;;;;;;;20.92;34.90;99782.63;5038637;28;20544;-75
2022/03/30 09:14:59;;;;;;;35.53;22.95;;;;;;;20.93;34.96;99791.50;5044750;28;20547;-74
2022/03/30 09:17:25;;;;;;;29.25;22.38;;;;;;;20.70;33.68;99782.91;5040051;28;20041;-74
2022/03/30 09:19:53;;;;;;;30.98;23.98;;;;;;;20.44;33.79;99785.06;5040779;28;20041;-73
2022/03/30 09:22:21;;;;;;;29.83;20.83;;;;;;;20.05;33.58;99784.41;5041272;28;20041;-73
2022/03/30 09:24:46;;;;;;;33.20;20.52;;;;;;;20.01;33.13;99789.00;5042121;28;20052;-73
2022/03/30 09:27:12;;;;;;;26.40;18.38;;;;;;;19.87;33.81;99789.69;5043647;28;20083;-74
2022/03/30 09:29:38;;;;;;;26.25;21.23;;;;;;;20.43;33.39;99780.66;5041279;28;20040;-71
2022/03/30 09:32:08;;;;;;;24.08;19.83;;;;;;;20.60;33.80;99773.66;5038653;28;20056;-72
2022/03/30 09:34:47;;;;;;;33.22;23.02;;;;;;;21.07;34.31;99764.94;5032641;28;20056;-71
2022/03/30 09:37:13;;;;;;;33.67;19.52;;;;;;;20.82;32.38;99770.75;4987044;28;20096;-72
2022/03/30 09:39:40;;;;;;;27.52;19.35;;;;;;;20.66;33.78;99750.19;5025799;28;20032;-72
2022/03/30 09:42:43;;;;;;;27.30;19.23;;;;;;;21.18;33.85;99762.56;5034689;28;20041;-72
2022/03/30 09:45:09;;;;;;;39.47;20.10;;;;;;;20.64;32.56;99757.41;5023189;28;20056;-72
2022/03/30 09:47:39;;;;;;;28.40;19.20;;;;;;;20.99;33.70;99762.69;5027511;28;20040;-72
2022/03/30 09:50:07;;;;;;;39.72;20.45;;;;;;;20.56;33.58;99751.63;5021148;28;20087;-73
2022/03/30 09:52:33;;;;;;;23.10;18.38;;;;;;;20.96;32.73;99757.53;5024777;28;20041;-71
2022/03/30 09:55:04;;;;;;;22.95;18.85;;;;;;;20.75;33.12;99754.19;5022913;28;20116;-72
2022/03/30 09:57:42;;;;;;;28.38;19.00;;;;;;;21.13;32.52;99758.44;5013713;28;20428;-73
2022/03/30 10:00:13;;;;;;;32.38;19.63;;;;;;;21.11;33.01;99745.16;5025763;28;20350;-71
2022/03/30 10:02:42;;;;;;;28.38;18.48;;;;;;;21.00;31.42;99734.19;5028769;28;20469;-71
2022/03/30 10:05:10;;;;;;;27.88;18.35;;;;;;;20.63;32.12;99733.53;5024523;28;20049;-73
2022/03/30 10:07:37;;;;;;;30.65;17.13;;;;;;;21.44;31.64;99744.28;5020611;28;20048;-73
2022/03/30 10:10:38;;;;;;;36.17;18.25;;;;;;;21.44;33.52;99733.59;5019263;28;20038;-72
2022/03/30 10:13:05;;;;;;;25.35;17.65;;;;;;;21.39;31.58;99725.81;5036935;28;20446;-75
2022/03/30 10:15:31;;;;;;;28.67;18.58;;;;;;;21.56;32.51;99722.22;5018829;28;20454;-71
2022/03/30 10:17:57;;;;;;;35.35;18.58;;;;;;;21.82;32.42;99725.22;5028147;28;20091;-72
2022/03/30 10:20:23;;;;;;;28.35;17.42;;;;;;;21.63;32.52;99717.41;5030377;28;20045;-72
2022/03/30 10:22:57;;;;;;;22.67;17.38;;;;;;;21.70;33.19;99726.78;5020597;28;20053;-72
2022/03/30 10:25:31;;;;;;;20.13;15.75;;;;;;;21.86;32.56;99721.44;5043516;28;20048;-72
2022/03/30 10:28:22;;;;;;;21.10;16.23;;;;;;;21.90;31.59;99713.16;5028896;28;20047;-72
2022/03/30 10:30:56;;;;;;;37.05;18.85;;;;;;;21.98;32.28;99723.38;5034097;28;20036;-72
2022/03/30 10:33:44;;;;;;;23.52;17.08;;;;;;;21.92;31.87;99716.59;5025963;28;20454;-72
2022/03/30 10:36:27;;;;;;;30.08;17.30;;;;;;;21.77;31.59;99709.47;5037482;28;20053;-71
2022/03/30 10:39:27;;;;;;;26.33;17.50;;;;;;;21.82;30.98;99712.75;5040899;28;22306;-73
2022/03/30 10:42:07;;;;;;;18.55;15.77;;;;;;;22.19;31.78;99702.56;4975004;28;20481;-73
2022/03/30 10:44:45;;;;;;;24.80;16.55;;;;;;;22.57;31.02;99714.59;5040707;28;20075;-72
2022/03/30 10:47:12;;;;;;;24.52;16.25;;;;;;;22.38;29.73;99709.50;5037100;28;20053;-72
2022/03/30 10:49:44;;;;;;;30.80;17.38;;;;;;;22.16;32.07;99710.75;5043658;28;20473;-71
2022/03/30 10:52:35;;;;;;;26.67;17.58;;;;;;;22.12;32.25;99699.41;5040910;28;20037;-71
2022/03/30 10:55:12;;;;;;;23.98;16.50;;;;;;;22.77;30.69;99707.06;5043420;28;20037;-73
2022/03/30 10:57:58;;;;;;;21.17;14.85;;;;;;;22.56;30.28;99700.38;5039423;28;20036;-72
2022/03/30 11:00:36;;;;;;;28.35;17.02;;;;;;;22.69;30.42;99692.47;5041190;28;20450;-72
2022/03/30 11:03:25;;;;;;;30.80;17.20;;;;;;;22.73;29.29;99691.31;5039646;28;20076;-72
2022/03/30 11:06:05;;;;;;;24.05;17.00;;;;;;;22.48;29.35;99692.84;5039723;28;20132;-73
2022/03/30 11:08:33;;;;;;;29.92;18.30;;;;;;;22.34;30.24;99698.16;5040479;28;20049;-72
2022/03/30 11:11:23;;;;;;;19.98;16.45;;;;;;;22.53;29.98;99687.19;5040611;28;20106;-72
2022/03/30 11:14:09;;;;;;;30.23;16.23;;;;;;;22.75;30.08;99671.53;5041924;28;20385;-72
2022/03/30 11:17:01;;;;;;;26.38;18.02;;;;;;;22.36;29.79;99682.00;5044441;28;20041;-71
2022/03/30 11:20:04;;;;;;;26.27;18.23;;;;;;;22.37;29.70;99691.75;5041473;28;20118;-72
2022/03/30 11:22:32;;;;;;;25.00;18.00;;;;;;;22.13;30.85;99677.06;5044879;28;20125;-73
2022/03/30 11:25:10;;;;;;;30.77;16.33;;;;;;;22.44;30.13;99679.75;5045145;28;20032;-72
2022/03/30 11:27:36;;;;;;;32.28;18.33;;;;;;;22.51;30.21;99671.25;5044459;28;20039;-72
2022/03/30 11:30:14;;;;;;;28.23;16.45;;;;;;;22.51;29.37;99681.09;5043798;28;21124;-71
2022/03/30 11:32:53;;;;;;;24.60;18.70;;;;;;;22.34;29.79;99658.06;5043666;28;20043;-72